createdAt,value
2018-11-27T00:01:13.117Z,12.40
2018-11-27T00:03:53.211Z,12.80
2018-11-27T00:06:27.887Z,14.03
2018-11-27T00:09:02.574Z,15.30
2018-11-27T00:11:37.280Z,16.67
2018-11-27T00:14:11.715Z,15.67
2018-11-27T00:16:46.104Z,18.57
2018-11-27T00:19:20.661Z,18.50
2018-11-27T00:21:55.540Z,17.00
2018-11-27T00:24:30.328Z,17.57
2018-11-27T00:27:04.854Z,19.13
2018-11-27T00:29:39.378Z,17.57
2018-11-27T00:32:13.826Z,17.10
2018-11-27T00:34:48.228Z,17.63
2018-11-27T00:37:22.884Z,18.77
2018-11-27T00:39:57.340Z,18.57
2018-11-27T00:42:31.852Z,19.00
2018-11-27T00:45:08.576Z,24.97
2018-11-27T00:47:43.819Z,20.27
2018-11-27T00:50:21.507Z,19.97
2018-11-27T00:52:56.427Z,19.40
2018-11-27T00:55:31.045Z,17.87
2018-11-27T00:58:06.413Z,18.07
2018-11-27T01:00:41.004Z,16.90
2018-11-27T01:03:15.573Z,18.50
2018-11-27T01:05:50.411Z,18.27
2018-11-27T01:08:25.264Z,17.30
2018-11-27T01:11:00.089Z,17.47
2018-11-27T01:13:34.916Z,17.63
2018-11-27T01:16:09.488Z,16.43
2018-11-27T01:18:44.441Z,16.13
2018-11-27T01:21:19.242Z,17.40
2018-11-27T01:23:53.936Z,16.00
2018-11-27T01:26:28.719Z,24.30
2018-11-27T01:29:03.478Z,19.00
2018-11-27T01:31:38.454Z,19.00
2018-11-27T01:34:13.406Z,16.83
2018-11-27T01:36:48.100Z,17.33
2018-11-27T01:39:22.756Z,18.87
2018-11-27T01:41:57.420Z,17.30
2018-11-27T01:44:32.269Z,19.57
2018-11-27T01:47:07.212Z,17.93
2018-11-27T01:49:42.176Z,16.80
2018-11-27T01:52:17.167Z,17.70
2018-11-27T01:54:51.965Z,17.90
2018-11-27T01:57:26.457Z,18.20
2018-11-27T02:00:00.964Z,19.70
2018-11-27T02:02:35.744Z,17.53
2018-11-27T02:05:10.549Z,17.27
2018-11-27T02:07:45.344Z,16.83
2018-11-27T02:10:19.979Z,14.60
2018-11-27T02:13:00.989Z,17.67
2018-11-27T02:15:30.560Z,17.87
2018-11-27T02:18:05.864Z,16.93
2018-11-27T02:20:40.830Z,18.67
2018-11-27T02:23:15.557Z,16.57
2018-11-27T02:25:50.277Z,17.30
2018-11-27T02:28:25.047Z,19.77
2018-11-27T02:30:59.845Z,18.83
2018-11-27T02:33:34.495Z,18.10
2018-11-27T02:36:09.448Z,17.07
2018-11-27T02:38:44.260Z,17.37
2018-11-27T02:41:19.017Z,18.90
2018-11-27T02:43:53.490Z,16.70
2018-11-27T02:46:27.992Z,17.50
2018-11-27T02:49:02.612Z,19.00
2018-11-27T02:51:37.292Z,17.00
2018-11-27T02:54:11.847Z,17.50
2018-11-27T02:56:46.531Z,18.27
2018-11-27T02:59:21.074Z,17.93
2018-11-27T03:01:55.996Z,17.47
2018-11-27T03:04:30.996Z,18.17
2018-11-27T03:07:05.676Z,17.60
2018-11-27T03:09:40.341Z,17.60
2018-11-27T03:12:15.190Z,17.60
2018-11-27T03:14:49.829Z,18.30
2018-11-27T03:17:24.549Z,16.23
2018-11-27T03:19:58.980Z,19.00
2018-11-27T03:22:33.546Z,18.67
2018-11-27T03:25:10.775Z,17.93
2018-11-27T03:27:46.201Z,17.90
2018-11-27T03:30:22.148Z,18.23
2018-11-27T03:32:56.869Z,18.77
2018-11-27T03:35:31.820Z,15.80
2018-11-27T03:38:06.409Z,18.40
2018-11-27T03:40:41.375Z,20.80
2018-11-27T03:43:16.201Z,19.20
2018-11-27T03:45:51.188Z,20.40
2018-11-27T03:48:25.777Z,20.03
2018-11-27T03:51:00.409Z,19.60
2018-11-27T03:53:35.076Z,17.50
2018-11-27T03:56:09.604Z,20.63
2018-11-27T03:58:44.304Z,20.60
2018-11-27T04:01:18.969Z,22.30
2018-11-27T04:03:53.479Z,22.83
2018-11-27T04:06:28.528Z,19.77
2018-11-27T04:09:03.132Z,20.30
2018-11-27T04:11:37.977Z,20.80
2018-11-27T04:14:12.633Z,21.50
2018-11-27T04:16:47.172Z,19.53
2018-11-27T04:19:21.708Z,23.13
2018-11-27T04:21:56.160Z,24.17
2018-11-27T04:24:30.618Z,20.90
2018-11-27T04:27:05.172Z,20.53
2018-11-27T04:29:39.693Z,18.80
2018-11-27T04:32:14.375Z,17.20
2018-11-27T04:34:48.927Z,21.13
2018-11-27T04:37:23.395Z,22.70
2018-11-27T04:39:57.969Z,22.80
2018-11-27T04:42:32.561Z,21.73
2018-11-27T04:45:09.318Z,21.83
2018-11-27T04:47:44.208Z,23.47
2018-11-27T04:50:19.211Z,22.70
2018-11-27T04:52:53.818Z,23.53
2018-11-27T04:55:28.741Z,19.67
2018-11-27T04:58:03.304Z,23.50
2018-11-27T05:00:37.858Z,22.53
2018-11-27T05:03:12.498Z,27.60
2018-11-27T05:05:47.055Z,22.67
2018-11-27T05:08:21.627Z,21.23
2018-11-27T05:10:56.307Z,25.90
2018-11-27T05:13:30.875Z,23.73
2018-11-27T05:16:05.984Z,23.50
2018-11-27T05:18:40.639Z,24.70
2018-11-27T05:21:15.410Z,23.70
2018-11-27T05:23:50.223Z,19.87
2018-11-27T05:26:24.872Z,24.93
2018-11-27T05:28:59.543Z,23.07
2018-11-27T05:31:34.249Z,25.23
2018-11-27T05:34:09.105Z,22.80
2018-11-27T05:36:44.012Z,18.83
2018-11-27T05:39:19.144Z,23.80
2018-11-27T05:41:54.114Z,20.37
2018-11-27T05:44:28.851Z,25.77
2018-11-27T05:47:03.725Z,19.97
2018-11-27T05:49:38.389Z,23.77
2018-11-27T05:52:13.132Z,26.43
2018-11-27T05:54:48.002Z,22.83
2018-11-27T05:57:22.977Z,28.40
2018-11-27T05:59:57.830Z,25.87
2018-11-27T06:02:32.676Z,27.37
2018-11-27T06:05:10.283Z,24.80
2018-11-27T06:07:45.020Z,26.57
2018-11-27T06:10:20.614Z,26.80
2018-11-27T06:12:55.380Z,25.57
2018-11-27T06:15:30.056Z,23.37
2018-11-27T06:18:05.165Z,27.70
2018-11-27T06:20:39.738Z,24.87
2018-11-27T06:23:14.374Z,25.90
2018-11-27T06:25:48.858Z,27.97
2018-11-27T06:28:23.396Z,25.53
2018-11-27T06:30:58.920Z,26.00
2018-11-27T06:33:33.499Z,25.37
2018-11-27T06:36:08.148Z,29.70
2018-11-27T06:38:42.800Z,27.23
2018-11-27T06:41:17.528Z,26.77
2018-11-27T06:43:52.273Z,30.00
2018-11-27T06:46:26.991Z,28.77
2018-11-27T06:49:01.512Z,28.07
2018-11-27T06:51:36.517Z,29.00
2018-11-27T06:54:11.232Z,29.50
2018-11-27T06:56:45.739Z,28.53
2018-11-27T06:59:20.373Z,29.67
2018-11-27T07:01:56.787Z,31.30
2018-11-27T07:04:31.194Z,30.23
2018-11-27T07:07:06.092Z,29.77
2018-11-27T07:09:41.271Z,28.77
2018-11-27T07:12:15.976Z,27.73
2018-11-27T07:14:50.421Z,30.10
2018-11-27T07:17:25.283Z,27.53
2018-11-27T07:20:00.124Z,27.03
2018-11-27T07:22:36.461Z,30.13
2018-11-27T07:25:12.128Z,28.80
2018-11-27T07:27:47.981Z,30.10
2018-11-27T07:30:23.984Z,29.10
2018-11-27T07:32:58.700Z,29.87
2018-11-27T07:35:33.679Z,31.33
2018-11-27T07:38:08.464Z,27.50
2018-11-27T07:40:42.845Z,26.33
2018-11-27T07:43:17.493Z,29.07
2018-11-27T07:45:55.198Z,27.47
2018-11-27T07:48:26.656Z,29.90
2018-11-27T07:51:01.163Z,29.70
2018-11-27T07:53:35.909Z,30.30
2018-11-27T07:56:10.444Z,28.20
2018-11-27T07:58:45.097Z,28.17
2018-11-27T08:01:19.773Z,29.73
2018-11-27T08:03:54.572Z,30.50
2018-11-27T08:06:29.456Z,29.10
2018-11-27T08:09:06.036Z,28.37
2018-11-27T08:11:41.635Z,25.40
2018-11-27T08:16:56.982Z,26.80
2018-11-27T08:19:31.359Z,25.90
2018-11-27T08:22:06.440Z,27.63
2018-11-27T08:24:41.061Z,26.63
2018-11-27T08:27:15.633Z,26.27
2018-11-27T08:29:50.209Z,23.63
2018-11-27T08:32:24.980Z,23.17
2018-11-27T08:34:59.672Z,24.10
2018-11-27T08:37:34.349Z,26.70
2018-11-27T08:40:11.232Z,25.93
2018-11-27T08:42:46.043Z,24.63
2018-11-27T08:45:22.757Z,24.97
2018-11-27T08:47:57.492Z,25.37
2018-11-27T08:50:32.084Z,25.77
2018-11-27T08:53:07.124Z,23.77
2018-11-27T08:55:42.672Z,22.87
2018-11-27T08:58:19.592Z,23.37
2018-11-27T09:00:54.282Z,20.47
2018-11-27T09:03:29.441Z,24.50
2018-11-27T09:06:03.938Z,25.30
2018-11-27T09:08:38.613Z,25.10
2018-11-27T09:11:13.215Z,27.00
2018-11-27T09:13:47.717Z,25.30
2018-11-27T09:16:22.180Z,25.03
2018-11-27T09:18:56.599Z,26.30
2018-11-27T09:21:31.201Z,26.93
2018-11-27T09:24:06.018Z,22.47
2018-11-27T09:26:40.860Z,22.10
2018-11-27T09:29:15.263Z,24.43
2018-11-27T09:31:49.832Z,25.27
2018-11-27T09:34:24.424Z,25.33
2018-11-27T09:36:59.021Z,24.93
2018-11-27T09:39:33.613Z,26.00
2018-11-27T09:42:08.198Z,26.97
2018-11-27T09:44:42.712Z,25.23
2018-11-27T09:47:17.069Z,23.43
2018-11-27T09:49:51.677Z,26.90
2018-11-27T09:52:26.260Z,26.00
2018-11-27T09:55:01.608Z,23.60
2018-11-27T09:57:36.163Z,24.17
2018-11-27T10:00:42.699Z,24.77
2018-11-27T10:03:17.312Z,24.17
2018-11-27T10:05:51.724Z,26.00
2018-11-27T10:08:26.494Z,27.73
2018-11-27T10:11:01.239Z,27.53
2018-11-27T10:13:35.800Z,25.27
2018-11-27T10:16:10.368Z,24.00
2018-11-27T10:18:44.935Z,24.20
2018-11-27T10:21:19.564Z,26.30
2018-11-27T10:23:54.044Z,28.90
2018-11-27T10:26:29.108Z,26.20
2018-11-27T10:29:03.820Z,26.60
2018-11-27T10:31:38.226Z,25.80
2018-11-27T10:34:13.116Z,25.27
2018-11-27T10:36:47.875Z,29.70
2018-11-27T10:39:22.345Z,25.30
2018-11-27T10:41:57.044Z,27.50
2018-11-27T10:44:31.483Z,26.40
2018-11-27T10:47:06.104Z,22.50
2018-11-27T10:49:40.683Z,26.10
2018-11-27T10:52:15.367Z,26.17
2018-11-27T10:54:50.819Z,24.93
2018-11-27T10:57:24.495Z,27.80
2018-11-27T11:00:01.010Z,25.77
2018-11-27T11:02:36.078Z,26.97
2018-11-27T11:05:11.003Z,23.00
2018-11-27T11:07:45.672Z,23.00
2018-11-27T11:10:20.092Z,22.63
2018-11-27T11:12:54.532Z,22.27
2018-11-27T11:15:29.219Z,23.90
2018-11-27T11:18:03.785Z,21.90
2018-11-27T11:23:18.948Z,22.53
2018-11-27T11:25:53.358Z,21.80
2018-11-27T11:28:29.835Z,22.43
2018-11-27T11:31:04.266Z,24.00
2018-11-27T11:36:19.569Z,21.60
2018-11-27T11:38:53.995Z,19.70
2018-11-27T11:41:31.302Z,22.27
2018-11-27T11:44:03.488Z,19.90
2018-11-27T11:46:38.029Z,20.87
2018-11-27T11:49:12.597Z,22.17
2018-11-27T11:51:47.205Z,20.30
2018-11-27T11:54:21.839Z,20.37
2018-11-27T11:56:56.481Z,21.30
2018-11-27T11:59:31.292Z,22.90
2018-11-27T12:02:06.039Z,20.60
2018-11-27T12:04:40.525Z,17.60
2018-11-27T12:07:15.476Z,18.27
2018-11-27T12:09:50.078Z,17.93
2018-11-27T12:12:24.555Z,20.17
2018-11-27T12:14:58.951Z,17.77
2018-11-27T12:17:34.300Z,19.47
2018-11-27T12:20:10.379Z,21.30
2018-11-27T12:22:48.012Z,20.70
2018-11-27T12:25:24.390Z,19.03
2018-11-27T12:27:57.668Z,18.37
2018-11-27T12:30:32.287Z,19.30
2018-11-27T12:33:07.193Z,18.97
2018-11-27T12:35:41.624Z,18.77
2018-11-27T12:38:15.952Z,18.73
2018-11-27T12:40:50.779Z,17.27
2018-11-27T12:43:25.371Z,18.47
2018-11-27T12:46:00.130Z,18.70
2018-11-27T12:48:34.875Z,18.97
2018-11-27T12:51:10.102Z,20.20
2018-11-27T12:53:45.082Z,19.23
2018-11-27T12:56:19.826Z,15.67
2018-11-27T12:58:54.539Z,17.20
2018-11-27T13:01:28.904Z,18.00
2018-11-27T13:04:03.424Z,17.80
2018-11-27T13:06:38.051Z,20.50
2018-11-27T13:09:12.526Z,16.00
2018-11-27T13:11:47.180Z,16.40
2018-11-27T13:14:21.806Z,15.30
2018-11-27T13:16:56.383Z,18.23
2018-11-27T13:19:30.836Z,15.07
2018-11-27T13:22:06.220Z,15.70
2018-11-27T13:24:40.792Z,15.33
2018-11-27T13:27:15.951Z,12.90
2018-11-27T13:29:50.580Z,12.57
2018-11-27T13:32:25.092Z,10.27
2018-11-27T13:34:59.681Z,12.30
2018-11-27T13:37:34.319Z,12.33
2018-11-27T13:40:10.340Z,12.27
2018-11-27T13:42:44.903Z,12.37
2018-11-27T13:45:19.468Z,10.47
2018-11-27T13:47:53.847Z,12.00
2018-11-27T13:50:28.414Z,11.63
2018-11-27T13:53:02.992Z,11.93
2018-11-27T13:55:37.443Z,9.67
2018-11-27T13:58:12.011Z,11.83
2018-11-27T14:00:46.787Z,10.30
2018-11-27T14:03:22.722Z,10.07
2018-11-27T14:05:57.634Z,9.63
2018-11-27T14:08:32.282Z,11.47
2018-11-27T14:11:06.796Z,10.80
2018-11-27T14:13:41.292Z,9.40
2018-11-27T14:16:15.691Z,9.53
2018-11-27T14:18:50.369Z,10.70
2018-11-27T14:21:25.240Z,8.83
2018-11-27T14:24:00.856Z,10.40
2018-11-27T14:26:35.359Z,10.23
2018-11-27T14:29:09.904Z,11.13
2018-11-27T14:34:25.279Z,12.23
2018-11-27T14:37:00.846Z,11.73
2018-11-27T14:39:51.086Z,10.57
2018-11-27T14:42:25.946Z,9.30
2018-11-27T14:45:00.714Z,12.67
2018-11-27T14:47:35.161Z,11.63
2018-11-27T14:50:11.041Z,11.90
2018-11-27T14:52:45.598Z,10.57
2018-11-27T14:55:21.904Z,10.00
2018-11-27T14:57:56.436Z,12.27
2018-11-27T15:00:31.093Z,11.10
2018-11-27T15:03:06.087Z,10.57
2018-11-27T15:05:41.047Z,11.63
2018-11-27T15:08:15.642Z,8.93
2018-11-27T15:10:50.356Z,12.27
2018-11-27T15:13:25.133Z,9.60
2018-11-27T15:15:59.855Z,10.70
2018-11-27T15:18:34.384Z,12.13
2018-11-27T15:21:08.968Z,12.27
2018-11-27T15:23:43.536Z,11.53
2018-11-27T15:26:18.116Z,13.27
2018-11-27T15:28:52.690Z,11.33
2018-11-27T15:31:27.304Z,12.57
2018-11-27T15:34:02.376Z,11.90
2018-11-27T15:36:37.184Z,10.80
2018-11-27T15:39:11.544Z,13.87
2018-11-27T15:41:46.352Z,11.23
2018-11-27T15:44:21.072Z,13.13
2018-11-27T15:46:55.699Z,13.20
2018-11-27T15:49:30.299Z,13.80
2018-11-27T15:52:07.152Z,13.83
2018-11-27T15:54:41.712Z,12.60
2018-11-27T15:57:16.685Z,13.80
2018-11-27T15:59:51.394Z,13.20
2018-11-27T16:02:25.996Z,13.07
2018-11-27T16:05:00.632Z,12.57
2018-11-27T16:07:36.168Z,14.90
2018-11-27T16:10:16.071Z,15.10
2018-11-27T16:12:50.836Z,14.30
2018-11-27T16:15:25.710Z,12.47
2018-11-27T16:18:00.532Z,13.70
2018-11-27T16:20:35.484Z,13.97
2018-11-27T16:23:10.036Z,15.23
2018-11-27T16:25:44.905Z,14.10
2018-11-27T16:28:19.852Z,14.63
2018-11-27T16:30:54.500Z,15.07
2018-11-27T16:33:29.300Z,15.57
2018-11-27T16:36:04.303Z,16.50
2018-11-27T16:38:40.183Z,15.77
2018-11-27T16:41:13.443Z,14.80
2018-11-27T16:43:47.998Z,13.80
2018-11-27T16:46:22.795Z,13.93
2018-11-27T16:48:57.585Z,17.17
2018-11-27T16:51:32.096Z,14.53
2018-11-27T16:54:06.666Z,15.33
2018-11-27T16:56:41.380Z,13.87
2018-11-27T16:59:15.868Z,13.63
2018-11-27T17:01:51.148Z,16.97
2018-11-27T17:04:25.950Z,13.73
2018-11-27T17:07:01.260Z,15.93
2018-11-27T17:09:35.937Z,14.13
2018-11-27T17:12:10.428Z,16.60
2018-11-27T17:14:44.915Z,15.13
2018-11-27T17:17:19.591Z,17.20
2018-11-27T17:19:54.359Z,14.83
2018-11-27T17:22:28.740Z,15.07
2018-11-27T17:25:04.192Z,13.70
2018-11-27T17:27:39.738Z,14.93
2018-11-27T17:30:18.947Z,13.90
2018-11-27T17:32:54.415Z,16.03
2018-11-27T17:35:29.865Z,14.07
2018-11-27T17:38:06.604Z,15.70
2018-11-27T17:40:41.403Z,15.53
2018-11-27T17:43:16.417Z,16.33
2018-11-27T17:45:51.431Z,14.90
2018-11-27T17:48:26.084Z,15.47
2018-11-27T17:51:00.623Z,15.60
2018-11-27T17:53:35.464Z,15.63
2018-11-27T17:56:10.555Z,15.27
2018-11-27T17:58:45.582Z,16.20
2018-11-27T18:01:20.988Z,15.17
2018-11-27T18:03:56.724Z,15.10
2018-11-27T18:06:32.263Z,15.67
2018-11-27T18:09:09.185Z,14.60
2018-11-27T18:11:44.050Z,16.00
2018-11-27T18:14:18.599Z,16.27
2018-11-27T18:16:53.615Z,17.10
2018-11-27T18:19:28.285Z,16.73
2018-11-27T18:22:02.760Z,16.60
2018-11-27T18:24:38.528Z,16.03
2018-11-27T18:27:12.569Z,17.10
2018-11-27T18:29:47.333Z,16.77
2018-11-27T18:32:23.074Z,18.23
2018-11-27T18:34:57.575Z,14.93
2018-11-27T18:37:32.349Z,16.60
2018-11-27T18:40:09.964Z,16.67
2018-11-27T18:42:44.935Z,17.07
2018-11-27T18:45:27.993Z,13.20
2018-11-27T18:48:02.587Z,16.97
2018-11-27T18:50:37.356Z,18.00
2018-11-27T18:53:12.107Z,16.10
2018-11-27T18:55:47.083Z,16.37
2018-11-27T18:58:21.758Z,16.23
2018-11-27T19:00:56.968Z,17.57
2018-11-27T19:03:31.160Z,20.50
2018-11-27T19:06:06.335Z,15.63
2018-11-27T19:08:40.929Z,19.40
2018-11-27T19:11:15.634Z,19.03
2018-11-27T19:13:54.133Z,17.67
2018-11-27T19:16:29.066Z,17.27
2018-11-27T19:19:03.833Z,19.00
2018-11-27T19:21:38.933Z,16.40
2018-11-27T19:24:13.909Z,16.87
2018-11-27T19:26:48.773Z,19.47
2018-11-27T19:29:24.110Z,17.90
2018-11-27T19:31:59.636Z,16.03
2018-11-27T19:34:34.207Z,18.17
2018-11-27T19:37:09.208Z,15.40
2018-11-27T19:39:43.990Z,16.00
2018-11-27T19:42:18.704Z,18.80
2018-11-27T19:44:53.571Z,18.33
2018-11-27T19:47:28.054Z,16.70
2018-11-27T19:50:03.001Z,17.43
2018-11-27T19:52:38.880Z,17.33
2018-11-27T19:55:16.033Z,17.43
2018-11-27T19:57:50.664Z,18.10
2018-11-27T20:00:28.302Z,16.50
2018-11-27T20:03:02.879Z,20.63
2018-11-27T20:05:37.658Z,19.30
2018-11-27T20:08:14.342Z,21.57
2018-11-27T20:10:50.039Z,18.90
2018-11-27T20:13:24.986Z,19.87
2018-11-27T20:15:59.781Z,18.50
2018-11-27T20:18:35.157Z,22.80
2018-11-27T20:21:09.845Z,20.77
2018-11-27T20:23:44.877Z,20.87
2018-11-27T20:26:20.497Z,19.33
2018-11-27T20:28:55.258Z,21.30
2018-11-27T20:31:29.931Z,22.70
2018-11-27T20:34:06.804Z,20.43
2018-11-27T20:36:41.492Z,21.57
2018-11-27T20:39:16.293Z,19.97
2018-11-27T20:41:51.022Z,22.33
2018-11-27T20:44:25.709Z,20.73
2018-11-27T20:47:00.562Z,20.47
2018-11-27T20:49:35.937Z,22.20
2018-11-27T20:52:10.667Z,20.73
2018-11-27T20:54:47.332Z,19.50
2018-11-27T20:57:25.292Z,19.80
2018-11-27T21:00:01.967Z,20.50
2018-11-27T21:02:36.622Z,20.17
2018-11-27T21:05:11.816Z,17.70
2018-11-27T21:07:50.981Z,20.10
2018-11-27T21:10:25.905Z,19.50
2018-11-27T21:13:00.911Z,22.57
2018-11-27T21:15:36.282Z,22.27
2018-11-27T21:18:12.972Z,23.00
2018-11-27T21:20:47.893Z,21.43
2018-11-27T21:23:22.755Z,23.30
2018-11-27T21:26:03.312Z,19.63
2018-11-27T21:31:17.461Z,21.63
2018-11-27T21:33:52.228Z,22.27
2018-11-27T21:36:27.012Z,23.40
2018-11-27T21:39:01.476Z,21.20
2018-11-27T21:41:36.092Z,20.63
2018-11-27T21:44:10.907Z,23.07
2018-11-27T21:46:46.489Z,23.10
2018-11-27T21:49:21.349Z,22.17
2018-11-27T21:51:56.387Z,22.30
2018-11-27T21:54:31.366Z,23.90
2018-11-27T21:57:06.042Z,21.90
2018-11-27T21:59:40.798Z,22.87
2018-11-27T22:02:15.276Z,21.87
2018-11-27T22:04:50.608Z,23.60
2018-11-27T22:07:25.024Z,22.27
2018-11-27T22:10:00.123Z,23.63
2018-11-27T22:12:34.932Z,23.87
2018-11-27T22:15:12.621Z,25.23
2018-11-27T22:17:47.320Z,21.20
2018-11-27T22:20:21.928Z,23.87
2018-11-27T22:22:56.622Z,23.13
2018-11-27T22:25:31.594Z,22.97
2018-11-27T22:28:07.386Z,21.33
2018-11-27T22:30:42.322Z,22.87
2018-11-27T22:33:17.181Z,24.30
2018-11-27T22:35:52.013Z,22.97
2018-11-27T22:38:26.611Z,25.10
2018-11-27T22:41:01.160Z,25.53
2018-11-27T22:43:35.756Z,23.50
2018-11-27T22:46:10.225Z,23.40
2018-11-27T22:48:44.844Z,25.03
2018-11-27T22:51:19.512Z,24.20
2018-11-27T22:53:54.083Z,24.00
2018-11-27T22:56:28.916Z,23.27
2018-11-27T22:59:03.784Z,23.47
2018-11-27T23:01:38.933Z,26.97
2018-11-27T23:04:13.832Z,25.40
2018-11-27T23:06:48.593Z,24.90
2018-11-27T23:09:23.532Z,22.53
2018-11-27T23:11:58.377Z,22.47
2018-11-27T23:14:33.068Z,21.87
2018-11-27T23:17:07.992Z,22.20
2018-11-27T23:19:42.576Z,22.70
2018-11-27T23:22:17.202Z,22.63
2018-11-27T23:24:51.935Z,24.83
2018-11-27T23:27:26.377Z,23.77
2018-11-27T23:30:00.944Z,25.27
2018-11-27T23:32:35.673Z,23.77
2018-11-27T23:35:10.330Z,22.70
2018-11-27T23:37:44.805Z,24.33
2018-11-27T23:40:21.232Z,24.83
2018-11-27T23:42:55.712Z,23.40
2018-11-27T23:45:30.340Z,21.90
2018-11-27T23:48:05.681Z,22.33
2018-11-27T23:50:40.372Z,22.93
2018-11-27T23:53:15.800Z,23.87
2018-11-27T23:55:50.237Z,24.93
2018-11-27T23:58:24.823Z,26.30
